Time;durP1;ratioP1;P1;durP2;ratioP2;P2;SDS_P1;SDS_P2;PMS_P1;PMS_P2;Temp;Humidity;BMP_temperature;BMP_pressure;BME280_temperature;BME280_humidity;BME280_pressure;Samples;Min_cycle;Max_cycle;Signal;HPM_P1;HPM_P2
2022/11/29 00:00:30;;;;;;;25.40;20.52;;;10.50;1.00;;;;;;5013059;28;20030;-61
2022/11/29 00:02:56;;;;;;;22.92;19.65;;;10.50;1.00;;;;;;5023252;28;20464;-61
2022/11/29 00:05:21;;;;;;;23.63;20.55;;;10.50;1.00;;;;;;5024867;28;20495;-62
2022/11/29 00:07:47;;;;;;;24.20;19.35;;;10.40;1.00;;;;;;5029060;28;20030;-62
2022/11/29 00:10:12;;;;;;;23.40;20.15;;;10.40;1.00;;;;;;5027247;28;20531;-61
2022/11/29 00:12:38;;;;;;;24.45;19.88;;;10.40;1.00;;;;;;5024323;28;20029;-61
2022/11/29 00:15:04;;;;;;;22.80;19.63;;;10.50;1.00;;;;;;5022778;28;20025;-61
2022/11/29 00:17:29;;;;;;;25.50;19.55;;;10.50;1.00;;;;;;5017764;28;20022;-61
2022/11/29 00:19:55;;;;;;;24.80;19.90;;;10.40;1.00;;;;;;5014604;28;20117;-61
2022/11/29 00:22:23;;;;;;;25.88;19.88;;;10.50;1.00;;;;;;5024417;28;20009;-61
2022/11/29 00:24:50;;;;;;;23.20;19.73;;;10.40;1.00;;;;;;5026704;28;20041;-62
2022/11/29 00:27:15;;;;;;;26.80;19.98;;;10.40;1.00;;;;;;5031517;28;20104;-61
2022/11/29 00:29:41;;;;;;;22.27;19.75;;;10.50;1.00;;;;;;5015140;28;20515;-61
2022/11/29 00:32:06;;;;;;;23.35;19.08;;;10.50;1.00;;;;;;5020217;28;20033;-61
2022/11/29 00:34:32;;;;;;;22.48;19.52;;;10.50;1.00;;;;;;5031788;28;20025;-61
2022/11/29 00:36:58;;;;;;;22.58;19.48;;;10.50;1.00;;;;;;5031758;28;20053;-61
2022/11/29 00:39:23;;;;;;;23.15;18.85;;;10.50;1.00;;;;;;5016524;28;20036;-61
2022/11/29 00:41:49;;;;;;;25.60;20.52;;;10.50;1.00;;;;;;5023856;28;20037;-61
2022/11/29 00:44:15;;;;;;;20.80;18.60;;;10.40;1.00;;;;;;5031143;28;20475;-61
2022/11/29 00:46:40;;;;;;;25.92;19.58;;;10.40;1.00;;;;;;5031342;28;20037;-61
2022/11/29 00:49:06;;;;;;;21.95;18.65;;;10.50;1.00;;;;;;5023529;28;20081;-61
2022/11/29 00:51:32;;;;;;;23.70;19.60;;;10.50;1.00;;;;;;5025068;28;20069;-61
2022/11/29 00:53:57;;;;;;;25.90;20.83;;;10.50;1.00;;;;;;5024587;28;20045;-61
2022/11/29 00:56:23;;;;;;;21.50;18.75;;;10.50;1.00;;;;;;5018459;28;20074;-61
2022/11/29 00:58:49;;;;;;;24.10;19.42;;;10.60;1.00;;;;;;5026646;28;20392;-61
2022/11/29 01:01:14;;;;;;;21.17;18.80;;;10.50;1.00;;;;;;5028436;28;20030;-61
2022/11/29 01:03:40;;;;;;;23.73;20.00;;;10.50;1.00;;;;;;5033547;28;20053;-61
2022/11/29 01:06:11;;;;;;;24.58;19.50;;;10.50;1.00;;;;;;5017425;28;20033;-62
2022/11/29 01:08:38;;;;;;;25.52;20.25;;;10.50;1.00;;;;;;5013115;28;20026;-61
2022/11/29 01:11:12;;;;;;;22.00;18.38;;;10.40;1.00;;;;;;5019949;28;20333;-61
2022/11/29 01:13:38;;;;;;;22.65;20.17;;;10.30;1.00;;;;;;5004984;28;20034;-61
2022/11/29 01:16:05;;;;;;;21.30;19.08;;;10.40;1.00;;;;;;5008470;28;20030;-61
2022/11/29 01:18:32;;;;;;;23.02;18.90;;;10.30;1.00;;;;;;5021956;28;20032;-61
2022/11/29 01:21:03;;;;;;;21.90;19.30;;;10.40;1.00;;;;;;5014465;28;20356;-61
2022/11/29 01:23:29;;;;;;;22.60;19.48;;;10.40;1.00;;;;;;5015670;28;20513;-61
2022/11/29 01:26:13;;;;;;;23.42;19.48;;;10.40;1.00;;;;;;5033696;28;20022;-61
2022/11/29 01:28:40;;;;;;;24.63;19.92;;;10.30;1.00;;;;;;5019462;28;20490;-61
2022/11/29 01:31:11;;;;;;;21.88;19.58;;;10.30;1.00;;;;;;5026365;28;20029;-61
2022/11/29 01:33:37;;;;;;;23.35;19.95;;;10.40;1.00;;;;;;5015403;28;20476;-61
2022/11/29 01:36:04;;;;;;;26.08;20.27;;;10.40;1.00;;;;;;5012891;28;20087;-61
2022/11/29 01:38:30;;;;;;;25.00;18.70;;;10.40;1.00;;;;;;5018818;28;20037;-61
2022/11/29 01:41:23;;;;;;;25.98;19.75;;;10.40;1.00;;;;;;5019531;28;20037;-61
2022/11/29 01:44:01;;;;;;;25.30;20.42;;;10.40;1.00;;;;;;5018104;28;20456;-61
2022/11/29 01:46:54;;;;;;;25.15;19.25;;;10.40;1.00;;;;;;5033433;28;20026;-61
2022/11/29 01:49:28;;;;;;;23.93;19.80;;;10.40;1.00;;;;;;5004079;28;20081;-61
2022/11/29 01:52:02;;;;;;;24.42;18.40;;;10.30;1.00;;;;;;5015887;28;20281;-61
2022/11/29 01:54:30;;;;;;;24.88;19.50;;;10.30;1.00;;;;;;5027245;28;20586;-61
2022/11/29 01:56:58;;;;;;;23.83;19.83;;;10.40;1.00;;;;;;5034007;28;20395;-61
2022/11/29 01:59:27;;;;;;;26.27;18.88;;;10.30;1.00;;;;;;5033883;28;20025;-61
2022/11/29 02:01:59;;;;;;;23.05;19.63;;;10.30;1.00;;;;;;5029405;28;20030;-61
2022/11/29 02:04:25;;;;;;;25.30;19.50;;;10.30;1.00;;;;;;5022681;28;20052;-61
2022/11/29 02:06:50;;;;;;;26.75;19.63;;;10.30;1.00;;;;;;5030556;28;20021;-61
2022/11/29 02:09:22;;;;;;;23.90;19.05;;;10.20;1.00;;;;;;5020734;28;20387;-61
2022/11/29 02:11:50;;;;;;;24.73;20.33;;;10.10;1.00;;;;;;5029188;28;20390;-61
2022/11/29 02:14:47;;;;;;;22.23;19.77;;;10.10;1.00;;;;;;5018482;28;20029;-60
2022/11/29 02:17:21;;;;;;;24.65;19.83;;;10.10;1.00;;;;;;5028055;28;20021;-61
2022/11/29 02:19:53;;;;;;;24.30;19.10;;;10.10;1.00;;;;;;5032797;28;20033;-61
2022/11/29 02:22:30;;;;;;;25.77;20.23;;;10.00;1.00;;;;;;5019058;28;20040;-61
2022/11/29 02:25:11;;;;;;;22.13;19.60;;;10.00;1.00;;;;;;5025175;28;20531;-61
2022/11/29 02:28:19;;;;;;;31.98;20.48;;;10.00;1.00;;;;;;5033236;28;20475;-61
2022/11/29 02:30:54;;;;;;;26.38;20.05;;;10.00;1.00;;;;;;5013748;28;20394;-61
2022/11/29 02:33:50;;;;;;;26.70;19.13;;;10.00;1.00;;;;;;5012420;28;20459;-61
2022/11/29 02:36:27;;;;;;;23.40;19.33;;;10.00;1.00;;;;;;5018855;28;20475;-61
2022/11/29 02:38:58;;;;;;;25.30;20.80;;;10.00;1.00;;;;;;5028252;28;20406;-61
2022/11/29 02:42:04;;;;;;;26.48;19.52;;;10.00;1.00;;;;;;5026201;28;20121;-61
2022/11/29 02:44:46;;;;;;;25.92;19.80;;;10.00;1.00;;;;;;5028975;28;20387;-61
2022/11/29 02:47:20;;;;;;;25.37;20.60;;;10.00;1.00;;;;;;5030465;28;20419;-61
2022/11/29 02:50:09;;;;;;;21.95;19.52;;;10.00;1.00;;;;;;5028353;28;20455;-61
2022/11/29 02:52:46;;;;;;;26.42;19.65;;;10.00;1.00;;;;;;5011524;28;20044;-61
2022/11/29 02:55:34;;;;;;;23.58;20.95;;;9.90;1.00;;;;;;4998791;28;20030;-61
2022/11/29 02:58:42;;;;;;;26.73;20.48;;;10.00;1.00;;;;;;5022563;28;20083;-61
2022/11/29 03:01:22;;;;;;;24.67;21.13;;;9.90;1.00;;;;;;5008101;28;20395;-61
2022/11/29 03:04:15;;;;;;;26.38;21.23;;;10.00;1.00;;;;;;5008902;28;20095;-61
2022/11/29 03:06:55;;;;;;;26.05;20.20;;;9.90;1.00;;;;;;5029591;28;20025;-61
2022/11/29 03:10:05;;;;;;;25.67;20.08;;;9.90;1.00;;;;;;5031737;28;20026;-61
2022/11/29 03:12:43;;;;;;;28.80;20.40;;;9.90;1.00;;;;;;5001299;28;20062;-61
2022/11/29 03:15:22;;;;;;;26.40;20.13;;;9.90;1.00;;;;;;5014856;28;20037;-61
2022/11/29 03:17:51;;;;;;;26.95;22.10;;;9.90;1.00;;;;;;5027670;28;20348;-61
2022/11/29 03:20:53;;;;;;;27.05;20.60;;;10.00;1.00;;;;;;5027055;28;20026;-61
2022/11/29 03:23:34;;;;;;;27.65;21.13;;;9.90;1.00;;;;;;5001080;28;20127;-61
2022/11/29 03:26:05;;;;;;;26.13;21.23;;;10.00;1.00;;;;;;5032019;28;20033;-61
2022/11/29 03:29:09;;;;;;;26.03;21.33;;;9.90;1.00;;;;;;5029979;28;20030;-61
2022/11/29 03:31:43;;;;;;;28.07;20.70;;;9.90;1.00;;;;;;5013898;28;20590;-61
2022/11/29 03:34:41;;;;;;;28.00;21.05;;;9.90;1.00;;;;;;5017530;28;20026;-61
2022/11/29 03:37:57;;;;;;;28.77;23.00;;;10.00;1.00;;;;;;5004967;28;20026;-61
2022/11/29 03:40:39;;;;;;;;;;;9.90;1.00;;;;;;5018399;28;20044;-61
2022/11/29 03:43:21;;;;;;;28.05;21.20;;;9.90;1.00;;;;;;5018305;28;19913;-61
2022/11/29 03:46:04;;;;;;;27.17;21.47;;;9.90;1.00;;;;;;5017730;28;20022;-61
2022/11/29 03:48:38;;;;;;;24.87;20.00;;;9.90;1.00;;;;;;5005935;28;20053;-61
2022/11/29 03:51:22;;;;;;;31.48;21.60;;;9.90;1.00;;;;;;5027304;28;20037;-61
2022/11/29 03:53:54;;;;;;;26.13;20.38;;;9.90;1.00;;;;;;5029330;28;20025;-61
2022/11/29 03:56:40;;;;;;;27.87;20.90;;;9.90;1.00;;;;;;5012870;28;20034;-61
2022/11/29 03:59:30;;;;;;;30.00;20.83;;;10.00;1.00;;;;;;5016891;28;20030;-61
2022/11/29 04:02:17;;;;;;;29.45;20.88;;;9.90;1.00;;;;;;4999286;28;20113;-61
2022/11/29 04:05:15;;;;;;;31.67;22.13;;;10.00;1.00;;;;;;5022712;28;20069;-61
2022/11/29 04:08:02;;;;;;;32.30;23.73;;;9.90;1.00;;;;;;5031425;28;20084;-61
2022/11/29 04:11:05;;;;;;;30.00;22.33;;;10.00;1.00;;;;;;5001032;28;20038;-61
2022/11/29 04:13:48;;;;;;;32.87;22.60;;;10.00;1.00;;;;;;5029855;28;20022;-61
2022/11/29 04:16:59;;;;;;;32.65;22.80;;;10.00;1.00;;;;;;5012421;28;20038;-61
2022/11/29 04:19:52;;;;;;;30.60;23.00;;;10.00;1.00;;;;;;5011772;28;20080;-61
2022/11/29 04:22:37;;;;;;;32.35;24.13;;;10.00;1.00;;;;;;5004181;28;20259;-61
2022/11/29 04:25:26;;;;;;;29.67;22.95;;;10.00;1.00;;;;;;5000674;28;20038;-61
2022/11/29 04:28:30;;;;;;;28.38;23.58;;;10.00;1.00;;;;;;5006976;28;20030;-61
2022/11/29 04:31:27;;;;;;;28.57;23.53;;;10.00;1.00;;;;;;5010128;28;20066;-61
2022/11/29 04:34:24;;;;;;;33.38;24.02;;;10.00;1.00;;;;;;4989573;28;20085;-61
2022/11/29 04:37:09;;;;;;;31.13;23.87;;;10.00;1.00;;;;;;5024148;28;20048;-61
2022/11/29 04:39:57;;;;;;;33.05;23.83;;;10.00;1.00;;;;;;5007111;28;20033;-61
2022/11/29 04:43:07;;;;;;;29.60;23.60;;;10.00;1.00;;;;;;5013062;28;20089;-61
2022/11/29 04:46:11;;;;;;;30.43;23.70;;;9.90;1.00;;;;;;5009425;28;20042;-61
2022/11/29 04:48:50;;;;;;;31.40;24.05;;;10.00;1.00;;;;;;4953815;28;20051;-61
2022/11/29 04:51:34;;;;;;;30.10;23.55;;;10.00;1.00;;;;;;5033583;28;20108;-60
2022/11/29 04:54:22;;;;;;;33.30;23.75;;;10.00;1.00;;;;;;5023834;28;20037;-60
2022/11/29 04:56:53;;;;;;;28.23;22.70;;;10.00;1.00;;;;;;5020478;28;20025;-60
2022/11/29 04:59:40;;;;;;;31.27;23.52;;;10.00;1.00;;;;;;5034834;28;20033;-59
2022/11/29 05:02:30;;;;;;;35.05;23.08;;;10.00;1.00;;;;;;5021275;28;20071;-59
2022/11/29 05:05:21;;;;;;;30.80;23.17;;;10.00;1.00;;;;;;5030051;28;20488;-59
2022/11/29 05:08:05;;;;;;;29.92;23.15;;;9.90;1.00;;;;;;5015948;28;20442;-60
2022/11/29 05:10:55;;;;;;;29.35;24.02;;;9.90;1.00;;;;;;5009933;28;20387;-59
2022/11/29 05:14:00;;;;;;;31.20;22.92;;;10.00;1.00;;;;;;5031500;28;20024;-59
2022/11/29 05:16:44;;;;;;;30.52;21.83;;;9.90;1.00;;;;;;5031021;28;20367;-60
2022/11/29 05:19:12;;;;;;;31.73;23.58;;;9.90;1.00;;;;;;5023067;28;20034;-59
2022/11/29 05:22:06;;;;;;;31.87;24.27;;;9.90;1.00;;;;;;5034536;28;20099;-60
2022/11/29 05:25:09;;;;;;;27.23;21.80;;;9.90;1.00;;;;;;5032062;28;20430;-59
2022/11/29 05:28:01;;;;;;;30.63;23.05;;;9.90;1.00;;;;;;5006511;28;20037;-60
2022/11/29 05:30:53;;;;;;;27.63;22.63;;;10.00;1.00;;;;;;5032108;28;20105;-60
2022/11/29 05:33:37;;;;;;;28.60;23.13;;;10.00;1.00;;;;;;5034212;28;20026;-59
2022/11/29 05:36:20;;;;;;;34.53;23.77;;;10.00;1.00;;;;;;5014661;28;20029;-60
2022/11/29 05:39:04;;;;;;;25.92;21.75;;;10.00;1.00;;;;;;5031823;28;20029;-59
2022/11/29 05:41:53;;;;;;;30.43;21.97;;;10.00;1.00;;;;;;5027280;28;20117;-59
2022/11/29 05:44:51;;;;;;;29.80;23.13;;;10.00;1.00;;;;;;5020305;28;20374;-59
2022/11/29 05:47:22;;;;;;;28.02;23.70;;;10.00;1.00;;;;;;5015249;28;20060;-59
2022/11/29 05:50:17;;;;;;;31.13;24.15;;;9.90;1.00;;;;;;5033339;28;20477;-59
2022/11/29 05:52:57;;;;;;;28.17;22.02;;;9.90;1.00;;;;;;5024087;28;20079;-59
2022/11/29 05:55:41;;;;;;;25.83;20.90;;;9.90;1.00;;;;;;5025037;28;20030;-59
2022/11/29 05:58:33;;;;;;;29.58;22.02;;;10.00;1.00;;;;;;5031515;28;20013;-59
2022/11/29 06:01:13;;;;;;;24.80;20.90;;;9.90;1.00;;;;;;5025014;28;20112;-60
2022/11/29 06:04:04;;;;;;;26.73;20.42;;;9.80;1.00;;;;;;5003695;28;20156;-60
2022/11/29 06:07:00;;;;;;;25.30;19.08;;;9.80;1.00;;;;;;5014837;28;20168;-60
2022/11/29 06:09:39;;;;;;;24.67;18.67;;;9.90;1.00;;;;;;5013972;28;20029;-60
2022/11/29 06:16:04;;;;;;;24.02;18.17;;;9.90;1.00;;;;;;5012392;28;20040;-60
2022/11/29 06:19:07;;;;;;;25.13;19.13;;;9.80;1.00;;;;;;5008418;28;20017;-60
2022/11/29 06:22:13;;;;;;;25.23;18.58;;;9.80;1.00;;;;;;5019449;28;20479;-60
2022/11/29 06:24:39;;;;;;;;;;;9.80;1.00;;;;;;5030315;28;20136;-60
2022/11/29 06:27:24;;;;;;;22.45;18.48;;;9.80;1.00;;;;;;5022449;28;19940;-60
2022/11/29 06:30:05;;;;;;;22.20;19.30;;;9.80;1.00;;;;;;5031891;28;20033;-60
2022/11/29 06:33:11;;;;;;;22.17;19.77;;;9.70;1.00;;;;;;5018975;28;20479;-60
2022/11/29 06:35:45;;;;;;;21.92;18.13;;;9.80;1.00;;;;;;5033473;28;20021;-60
2022/11/29 06:38:24;;;;;;;22.75;17.90;;;9.70;1.00;;;;;;5033170;28;20371;-60
2022/11/29 06:40:51;;;;;;;22.33;19.20;;;9.90;1.00;;;;;;5033202;28;20482;-60
2022/11/29 06:43:17;;;;;;;24.83;17.57;;;9.80;1.00;;;;;;5019103;28;20383;-60
2022/11/29 06:46:02;;;;;;;23.70;18.90;;;9.80;1.00;;;;;;5032147;28;20085;-60
2022/11/29 06:48:35;;;;;;;20.20;16.95;;;9.80;1.00;;;;;;5032690;28;20510;-62
2022/11/29 06:51:33;;;;;;;20.48;16.95;;;9.80;1.00;;;;;;5032918;28;20025;-60
2022/11/29 06:54:21;;;;;;;20.77;16.05;;;9.80;1.00;;;;;;5009617;28;20038;-61
2022/11/29 06:57:13;;;;;;;24.55;16.73;;;9.80;1.00;;;;;;5031546;28;20037;-60
2022/11/29 06:59:53;;;;;;;22.95;17.13;;;9.80;1.00;;;;;;5027183;28;20037;-60
2022/11/29 07:02:41;;;;;;;24.50;17.23;;;9.80;1.00;;;;;;5032361;28;20017;-61
2022/11/29 07:05:26;;;;;;;24.55;17.40;;;9.80;1.00;;;;;;5032767;28;20096;-61
2022/11/29 07:07:56;;;;;;;23.02;17.60;;;9.80;1.00;;;;;;5032778;28;20025;-61
2022/11/29 07:10:22;;;;;;;27.00;17.98;;;9.80;1.00;;;;;;5032499;28;20452;-60
2022/11/29 07:12:49;;;;;;;24.15;17.17;;;9.80;1.00;;;;;;5032571;28;20025;-61
2022/11/29 07:15:21;;;;;;;22.77;17.67;;;9.80;1.00;;;;;;5022313;28;20026;-61
2022/11/29 07:17:52;;;;;;;22.98;16.50;;;9.80;1.00;;;;;;5007412;28;20026;-60
2022/11/29 07:20:28;;;;;;;20.92;16.92;;;9.70;1.00;;;;;;5027305;28;20144;-60
2022/11/29 07:23:06;;;;;;;21.20;16.95;;;9.80;1.00;;;;;;5027687;28;20025;-61
2022/11/29 07:25:37;;;;;;;24.10;17.00;;;9.80;1.00;;;;;;5013683;28;20379;-61
2022/11/29 07:28:45;;;;;;;23.67;17.90;;;9.80;1.00;;;;;;5017190;28;20076;-60
2022/11/29 07:31:30;;;;;;;19.95;15.90;;;9.80;1.00;;;;;;5012312;28;20033;-61
2022/11/29 07:34:12;;;;;;;21.85;15.90;;;9.80;1.00;;;;;;5032209;28;20034;-60
2022/11/29 07:36:56;;;;;;;21.38;15.05;;;9.90;1.00;;;;;;5018217;28;20026;-60
2022/11/29 07:39:30;;;;;;;21.92;15.15;;;9.90;1.00;;;;;;5032049;28;20028;-60
2022/11/29 07:42:17;;;;;;;22.17;16.45;;;9.90;1.00;;;;;;5032083;28;20029;-60
2022/11/29 07:45:04;;;;;;;19.67;15.13;;;9.90;1.00;;;;;;5031988;28;20056;-60
2022/11/29 07:47:29;;;;;;;25.23;16.20;;;9.90;1.00;;;;;;5031519;28;20045;-60
2022/11/29 07:49:55;;;;;;;19.70;14.10;;;9.80;1.00;;;;;;5028932;28;20443;-60
2022/11/29 07:52:21;;;;;;;15.10;11.55;;;9.90;1.00;;;;;;5028035;28;20032;-60
2022/11/29 07:54:46;;;;;;;15.45;11.07;;;9.80;1.00;;;;;;5031645;28;20395;-60
2022/11/29 07:57:12;;;;;;;13.35;10.23;;;9.90;1.00;;;;;;5031693;28;20136;-60
2022/11/29 07:59:37;;;;;;;14.70;10.48;;;9.90;1.00;;;;;;5031537;28;20097;-61
2022/11/29 08:02:03;;;;;;;14.20;12.05;;;10.00;1.00;;;;;;5028007;28;20057;-61
2022/11/29 08:04:29;;;;;;;14.70;11.17;;;10.00;1.00;;;;;;5030918;28;20059;-60
2022/11/29 08:06:58;;;;;;;13.27;11.68;;;10.00;1.00;;;;;;5031632;28;20029;-61
2022/11/29 08:09:23;;;;;;;14.15;10.77;;;10.00;1.00;;;;;;5031516;28;20021;-61
2022/11/29 08:11:49;;;;;;;11.27;9.10;;;10.00;1.00;;;;;;5031631;28;20029;-61
2022/11/29 08:14:15;;;;;;;11.23;9.50;;;10.10;1.00;;;;;;5031426;28;20447;-61
2022/11/29 08:16:40;;;;;;;15.93;11.30;;;10.10;1.00;;;;;;5019256;28;20373;-61
2022/11/29 08:19:06;;;;;;;15.00;12.50;;;10.10;1.00;;;;;;5028116;28;20033;-61
2022/11/29 08:21:31;;;;;;;17.77;11.60;;;10.10;1.00;;;;;;5031634;28;20387;-61
2022/11/29 08:23:57;;;;;;;17.55;12.30;;;10.20;1.00;;;;;;5031418;28;20390;-61
2022/11/29 08:26:23;;;;;;;15.90;10.70;;;10.20;1.00;;;;;;5031566;28;20112;-61
2022/11/29 08:28:51;;;;;;;11.55;9.00;;;10.20;1.00;;;;;;5023717;28;20037;-61
2022/11/29 08:31:17;;;;;;;13.13;8.75;;;10.20;1.00;;;;;;5030216;28;20368;-61
2022/11/29 08:33:43;;;;;;;18.15;9.85;;;10.20;1.00;;;;;;5031307;28;20491;-61
2022/11/29 08:36:12;;;;;;;12.67;9.50;;;10.30;1.00;;;;;;5031266;28;20029;-61
2022/11/29 08:38:38;;;;;;;15.98;11.20;;;10.30;1.00;;;;;;5027883;28;20140;-61
2022/11/29 08:41:06;;;;;;;18.02;12.88;;;10.30;1.00;;;;;;5026695;28;20378;-61
2022/11/29 08:43:32;;;;;;;20.52;12.98;;;10.30;1.00;;;;;;5031347;28;20029;-61
2022/11/29 08:45:58;;;;;;;23.00;14.23;;;10.30;1.00;;;;;;5031261;28;20040;-61
2022/11/29 08:48:24;;;;;;;17.85;12.38;;;10.30;1.00;;;;;;5030716;28;20137;-61
2022/11/29 08:50:52;;;;;;;16.75;12.45;;;10.30;1.00;;;;;;5024849;28;20057;-61
2022/11/29 08:56:02;;;;;;;17.80;10.48;;;10.40;1.00;;;;;;5031456;28;20086;-61
2022/11/29 08:58:28;;;;;;;16.35;11.90;;;10.50;1.00;;;;;;5030896;28;20477;-60
2022/11/29 09:00:54;;;;;;;16.30;10.10;;;10.40;1.00;;;;;;5025995;28;20056;-60
2022/11/29 09:06:10;;;;;;;13.57;10.43;;;10.60;1.00;;;;;;5031496;28;20041;-60
2022/11/29 09:08:36;;;;;;;19.02;13.23;;;10.50;1.00;;;;;;5031038;28;20053;-60
2022/11/29 09:11:12;;;;;;;16.00;12.23;;;10.60;1.00;;;;;;5031106;28;20060;-60
2022/11/29 09:13:42;;;;;;;16.15;12.57;;;10.60;1.00;;;;;;5031002;28;20555;-60
2022/11/29 09:16:10;;;;;;;17.15;13.38;;;10.70;1.00;;;;;;5017862;28;20349;-60
2022/11/29 09:18:37;;;;;;;15.85;12.18;;;10.70;1.00;;;;;;5027052;28;20013;-60
2022/11/29 09:21:11;;;;;;;18.40;13.75;;;10.70;1.00;;;;;;5034443;28;20033;-60
2022/11/29 09:23:37;;;;;;;16.87;12.53;;;10.70;1.00;;;;;;5034371;28;20507;-60
2022/11/29 09:26:04;;;;;;;20.20;13.93;;;10.70;1.00;;;;;;5034335;28;20041;-60
2022/11/29 09:28:32;;;;;;;18.75;13.65;;;10.70;1.00;;;;;;5032792;28;20025;-60
2022/11/29 09:31:07;;;;;;;19.38;13.40;;;10.80;1.00;;;;;;5029946;28;20032;-60
2022/11/29 09:33:33;;;;;;;16.60;12.63;;;10.80;1.00;;;;;;5034218;28;20412;-60
2022/11/29 09:36:00;;;;;;;20.77;14.70;;;10.90;1.00;;;;;;5034287;28;20029;-60
2022/11/29 09:38:26;;;;;;;19.33;14.55;;;10.90;1.00;;;;;;5034221;28;20348;-61
2022/11/29 09:41:01;;;;;;;22.73;15.13;;;10.90;1.00;;;;;;5030482;28;20034;-61
2022/11/29 09:44:07;;;;;;;20.45;15.50;;;11.00;1.00;;;;;;5024998;28;20047;-61
2022/11/29 09:46:48;;;;;;;18.90;15.10;;;11.00;1.00;;;;;;5028320;28;20033;-61
2022/11/29 09:49:47;;;;;;;19.55;14.25;;;11.10;1.00;;;;;;5023470;28;20049;-62
2022/11/29 09:52:31;;;;;;;23.20;15.40;;;11.10;1.00;;;;;;5024549;28;20033;-61
2022/11/29 09:55:27;;;;;;;17.75;13.50;;;11.00;1.00;;;;;;5033879;28;20052;-62
2022/11/29 09:57:54;;;;;;;25.45;16.00;;;11.10;1.00;;;;;;5033555;28;20116;-62
2022/11/29 10:00:20;;;;;;;20.63;14.02;;;11.20;1.00;;;;;;5020705;28;20033;-62
2022/11/29 10:02:55;;;;;;;26.77;19.25;;;11.00;1.00;;;;;;5027152;28;20022;-61
2022/11/29 10:05:25;;;;;;;27.27;19.60;;;11.10;1.00;;;;;;5008147;28;20098;-61
2022/11/29 10:07:59;;;;;;;21.70;14.70;;;11.10;1.00;;;;;;5030018;28;20038;-61
2022/11/29 10:10:32;;;;;;;23.70;15.57;;;11.00;1.00;;;;;;5024086;28;20029;-61
2022/11/29 10:13:34;;;;;;;20.15;15.52;;;11.20;1.00;;;;;;5032108;28;20026;-61
2022/11/29 10:16:15;;;;;;;19.77;15.77;;;11.20;1.00;;;;;;5025263;28;20506;-61
2022/11/29 10:18:50;;;;;;;18.02;14.07;;;11.10;1.00;;;;;;5025481;28;20025;-61
2022/11/29 10:21:34;;;;;;;19.60;15.07;;;11.20;1.00;;;;;;5006907;28;20044;-61
2022/11/29 10:24:22;;;;;;;20.63;15.02;;;11.20;1.00;;;;;;5033403;28;20040;-61
2022/11/29 10:26:47;;;;;;;18.30;15.13;;;11.30;1.00;;;;;;5033119;28;20502;-62
2022/11/29 10:29:15;;;;;;;20.15;14.98;;;11.10;1.00;;;;;;5029827;28;20147;-73
2022/11/29 10:31:45;;;;;;;22.70;15.20;;;11.00;1.00;;;;;;5021677;28;20018;-67
2022/11/29 10:34:22;;;;;;;19.50;14.68;;;11.10;1.00;;;;;;5033280;28;20076;-67
2022/11/29 10:36:58;;;;;;;17.50;13.25;;;11.30;1.00;;;;;;5020641;28;20064;-67
2022/11/29 10:39:41;;;;;;;15.60;10.68;;;11.40;1.00;;;;;;5032543;28;20010;-68
2022/11/29 10:42:47;;;;;;;16.48;12.48;;;11.40;1.00;;;;;;5013618;28;20126;-67
2022/11/29 10:45:00;;;;;;;18.30;11.85;;;11.30;1.00;;;;;;5032608;28;20037;-67
2022/11/29 10:47:25;;;;;;;16.20;12.15;;;11.30;1.00;;;;;;5031668;28;20052;-67
2022/11/29 10:49:51;;;;;;;16.20;11.75;;;11.30;1.00;;;;;;5033156;28;20018;-67
2022/11/29 10:52:22;;;;;;;15.75;13.18;;;11.30;1.00;;;;;;5030605;28;20024;-66
2022/11/29 10:54:50;;;;;;;19.52;13.55;;;11.30;1.00;;;;;;5010509;28;20084;-67
2022/11/29 10:57:21;;;;;;;16.10;12.65;;;11.40;1.00;;;;;;5010491;28;20017;-67
2022/11/29 11:00:10;;;;;;;18.65;13.93;;;11.40;1.00;;;;;;5012334;28;20053;-67
2022/11/29 11:02:36;;;;;;;18.38;13.77;;;11.50;1.00;;;;;;5012225;28;20109;-67
2022/11/29 11:05:10;;;;;;;14.70;12.52;;;11.50;1.00;;;;;;5020499;28;20037;-66
2022/11/29 11:07:35;;;;;;;17.75;11.32;;;11.50;1.00;;;;;;5022579;28;20017;-66
2022/11/29 11:10:04;;;;;;;16.25;11.23;;;11.40;1.00;;;;;;5019778;28;20028;-66
2022/11/29 11:12:32;;;;;;;19.45;12.20;;;11.40;1.00;;;;;;5032430;28;20080;-66
2022/11/29 11:15:25;;;;;;;13.93;10.77;;;11.30;1.00;;;;;;5032016;28;20080;-66
2022/11/29 11:18:20;;;;;;;14.63;10.90;;;11.50;1.00;;;;;;5016647;28;20508;-66
2022/11/29 11:20:53;;;;;;;;;;;11.50;1.00;;;;;;5024174;28;20029;-66
2022/11/29 11:23:25;;;;;;;17.25;13.05;;;11.40;1.00;;;;;;5032223;28;19939;-66
2022/11/29 11:26:06;;;;;;;18.75;12.32;;;11.50;1.00;;;;;;5030630;28;20057;-66
2022/11/29 11:28:52;;;;;;;14.88;12.02;;;11.40;1.00;;;;;;5026387;28;20479;-65
2022/11/29 11:31:33;;;;;;;19.33;15.07;;;11.40;1.00;;;;;;5032556;28;20064;-66
2022/11/29 11:34:28;;;;;;;18.70;13.63;;;11.50;1.00;;;;;;4998911;28;20076;-66
2022/11/29 11:37:25;;;;;;;19.65;14.27;;;11.40;1.00;;;;;;5008741;28;20025;-66
2022/11/29 11:39:54;;;;;;;11.57;8.65;;;11.40;1.00;;;;;;5027135;28;20061;-66
2022/11/29 11:42:36;;;;;;;9.38;8.00;;;11.40;1.00;;;;;;5032144;28;20081;-66
2022/11/29 11:45:25;;;;;;;10.75;9.00;;;11.40;1.00;;;;;;5032013;28;20121;-66
2022/11/29 11:47:53;;;;;;;8.13;7.18;;;11.40;1.00;;;;;;5028460;28;20056;-66
2022/11/29 11:50:29;;;;;;;10.05;8.20;;;11.40;1.00;;;;;;5031695;28;20033;-65
2022/11/29 11:53:07;;;;;;;10.98;7.63;;;11.40;1.00;;;;;;5027324;28;20549;-66
2022/11/29 11:55:40;;;;;;;12.50;8.45;;;11.40;1.00;;;;;;5028449;28;20013;-66
2022/11/29 11:58:16;;;;;;;11.48;8.48;;;11.40;1.00;;;;;;5023937;28;20022;-65
2022/11/29 12:00:57;;;;;;;11.18;8.73;;;11.40;1.00;;;;;;5028260;28;20548;-66
2022/11/29 12:03:47;;;;;;;12.38;8.55;;;11.50;1.00;;;;;;5023368;28;20072;-65
2022/11/29 12:06:37;;;;;;;13.57;9.38;;;11.40;1.00;;;;;;4999285;28;20034;-65
2022/11/29 12:09:13;;;;;;;30.38;16.05;;;11.50;1.00;;;;;;5010171;28;20038;-65
2022/11/29 12:11:59;;;;;;;17.65;10.48;;;11.50;1.00;;;;;;5012162;28;20500;-66
2022/11/29 12:14:35;;;;;;;14.10;11.93;;;11.50;1.00;;;;;;5026142;28;20014;-66
2022/11/29 12:17:36;;;;;;;13.77;10.90;;;11.60;1.00;;;;;;5020771;28;20048;-66
2022/11/29 12:20:31;;;;;;;18.02;12.30;;;11.60;1.00;;;;;;5006998;28;20025;-66
2022/11/29 12:23:20;;;;;;;23.38;16.75;;;11.50;1.00;;;;;;5004359;28;20034;-66
2022/11/29 12:25:59;;;;;;;17.33;12.85;;;11.70;1.00;;;;;;5022683;28;20029;-66
2022/11/29 12:28:32;;;;;;;17.48;12.98;;;11.50;1.00;;;;;;5030458;28;20030;-65
2022/11/29 12:31:10;;;;;;;18.23;14.07;;;11.70;1.00;;;;;;5031546;28;20032;-64
2022/11/29 12:33:48;;;;;;;18.20;14.27;;;11.70;1.00;;;;;;5031216;28;20013;-66
2022/11/29 12:36:52;;;;;;;18.45;14.20;;;11.70;1.00;;;;;;5023995;28;20022;-66
2022/11/29 12:39:52;;;;;;;20.77;15.35;;;11.20;1.00;;;;;;5015812;28;20471;-66
2022/11/29 12:42:26;;;;;;;20.35;14.10;;;11.40;1.00;;;;;;5010373;28;20397;-63
2022/11/29 12:45:19;;;;;;;20.02;15.63;;;11.60;1.00;;;;;;5030055;28;20033;-64
2022/11/29 12:48:13;;;;;;;18.42;14.23;;;11.60;1.00;;;;;;5014545;28;20071;-64
2022/11/29 12:50:44;;;;;;;16.67;13.27;;;11.70;1.00;;;;;;5019468;28;20022;-64
2022/11/29 12:53:18;;;;;;;19.55;13.52;;;11.70;1.00;;;;;;5024031;28;20036;-64
2022/11/29 12:55:56;;;;;;;18.45;14.38;;;11.70;1.00;;;;;;5034957;28;20017;-65
2022/11/29 12:58:30;;;;;;;21.50;14.82;;;11.70;1.00;;;;;;5025957;28;20026;-64
2022/11/29 13:01:10;;;;;;;21.80;15.07;;;11.70;1.00;;;;;;5025352;28;20076;-64
2022/11/29 13:03:38;;;;;;;19.63;14.88;;;11.40;1.00;;;;;;5033538;28;20137;-64
2022/11/29 13:06:19;;;;;;;23.88;15.23;;;11.50;1.00;;;;;;5035060;28;20014;-63
2022/11/29 13:08:50;;;;;;;19.60;14.48;;;11.60;1.00;;;;;;5034549;28;20099;-64
2022/11/29 13:11:33;;;;;;;21.10;15.88;;;11.40;1.00;;;;;;5034750;28;20442;-64
2022/11/29 13:14:33;;;;;;;20.65;14.50;;;11.40;1.00;;;;;;5022939;28;20121;-64
2022/11/29 13:17:01;;;;;;;22.08;16.00;;;11.40;1.00;;;;;;5015664;28;20037;-63
2022/11/29 13:19:49;;;;;;;23.73;17.63;;;11.40;1.00;;;;;;5032929;28;20022;-63
2022/11/29 13:22:44;;;;;;;18.63;14.90;;;11.40;1.00;;;;;;5033360;28;20030;-63
2022/11/29 13:25:19;;;;;;;20.65;15.48;;;11.40;1.00;;;;;;5024048;28;20041;-63
2022/11/29 13:27:51;;;;;;;;;;;11.40;1.00;;;;;;5034851;28;20025;-63
2022/11/29 13:30:17;;;;;;;21.45;14.98;;;11.40;1.00;;;;;;5034553;28;20004;-62
2022/11/29 13:33:06;;;;;;;19.60;15.38;;;11.50;1.00;;;;;;5034579;28;20065;-64
2022/11/29 13:35:48;;;;;;;27.05;18.55;;;11.50;1.00;;;;;;5021032;28;20021;-64
2022/11/29 13:38:54;;;;;;;22.95;16.33;;;11.50;1.00;;;;;;5034314;28;20017;-64
2022/11/29 13:41:54;;;;;;;20.48;16.42;;;11.50;1.00;;;;;;5032892;28;20032;-64
2022/11/29 13:44:44;;;;;;;20.27;15.43;;;11.40;1.00;;;;;;5028660;28;20042;-64
2022/11/29 13:47:13;;;;;;;22.02;15.98;;;11.50;1.00;;;;;;5008583;28;20028;-63